createdAt,value
2019-04-20T00:00:51.031Z,103091.09
2019-04-20T00:02:53.835Z,103087.63
2019-04-20T00:04:55.052Z,103094.62
2019-04-20T00:06:57.961Z,103095.83
2019-04-20T00:09:07.354Z,103090.63
2019-04-20T00:11:11.727Z,103093.52
2019-04-20T00:13:21.696Z,103085.41
2019-04-20T00:15:13.812Z,103085.70
2019-04-20T00:17:15.976Z,103092.53
2019-04-20T00:19:26.205Z,103085.44
2019-04-20T00:22:01.977Z,103082.97
2019-04-20T00:24:10.072Z,103082.59
2019-04-20T00:26:32.193Z,103081.69
2019-04-20T00:28:40.837Z,103076.51
2019-04-20T00:30:46.786Z,103078.44
2019-04-20T00:32:46.910Z,103074.31
2019-04-20T00:34:38.488Z,103078.09
2019-04-20T00:36:37.557Z,103080.45
2019-04-20T00:38:45.630Z,103083.46
2019-04-20T00:40:43.716Z,103079.30
2019-04-20T00:42:51.781Z,103078.78
2019-04-20T00:45:00.058Z,103069.23
2019-04-20T00:47:11.143Z,103069.57
2019-04-20T00:49:16.445Z,103072.41
2019-04-20T00:51:24.971Z,103073.87
2019-04-20T00:53:21.734Z,103069.29
2019-04-20T00:55:13.357Z,103071.88
2019-04-20T00:57:24.474Z,103072.62
2019-04-20T00:59:31.985Z,103076.58
2019-04-20T01:01:44.162Z,103079.98
2019-04-20T01:03:43.530Z,103084.56
2019-04-20T01:05:58.205Z,103075.51
2019-04-20T01:07:56.334Z,103073.81
2019-04-20T01:10:06.878Z,103073.92
2019-04-20T01:12:15.245Z,103074.17
2019-04-20T01:14:15.773Z,103070.37
2019-04-20T01:16:28.145Z,103078.43
2019-04-20T01:18:20.922Z,103073.19
2019-04-20T01:20:26.484Z,103076.78
2019-04-20T01:22:28.671Z,103055.61
2019-04-20T01:24:35.345Z,103076.01
2019-04-20T01:26:42.114Z,103073.55
2019-04-20T01:28:54.203Z,103073.73
2019-04-20T01:30:56.254Z,103075.69
2019-04-20T01:33:00.204Z,103076.76
2019-04-20T01:35:02.364Z,103077.59
2019-04-20T01:37:10.480Z,103069.09
2019-04-20T01:39:10.238Z,103074.64
2019-04-20T01:41:03.359Z,103071.14
2019-04-20T01:43:05.702Z,103077.29
2019-04-20T01:45:14.639Z,103074.22
2019-04-20T01:47:13.304Z,103078.59
2019-04-20T01:49:21.005Z,103076.03
2019-04-20T01:51:26.383Z,103078.41
2019-04-20T01:53:46.505Z,103074.16
2019-04-20T01:55:50.777Z,103085.17
2019-04-20T01:58:00.517Z,103081.41
2019-04-20T02:00:03.582Z,103084.83
2019-04-20T02:02:20.956Z,103081.11
2019-04-20T02:04:45.926Z,103082.23
2019-04-20T02:06:50.345Z,103089.11
2019-04-20T02:08:53.134Z,103084.13
2019-04-20T02:10:58.662Z,103084.95
2019-04-20T02:13:01.059Z,103085.73
2019-04-20T02:15:04.776Z,103089.94
2019-04-20T02:17:16.847Z,103087.22
2019-04-20T02:19:28.958Z,103089.77
2019-04-20T02:21:30.978Z,103094.97
2019-04-20T02:23:31.533Z,103091.15
2019-04-20T02:25:22.756Z,103096.09
2019-04-20T02:27:31.276Z,103090.55
2019-04-20T02:29:57.048Z,103093.79
2019-04-20T02:32:11.968Z,103091.49
2019-04-20T02:34:15.697Z,103096.30
2019-04-20T02:39:15.272Z,103090.23
2019-04-20T02:41:03.215Z,103087.42
2019-04-20T02:45:28.598Z,103085.00
2019-04-20T02:49:19.715Z,103091.63
2019-04-20T02:51:12.994Z,103087.20
2019-04-20T02:53:20.344Z,103088.77
2019-04-20T02:55:28.178Z,103093.53
2019-04-20T02:57:33.505Z,103088.64
2019-04-20T03:01:30.694Z,103093.66
2019-04-20T03:03:26.465Z,103091.49
2019-04-20T03:05:33.207Z,103096.05
2019-04-20T03:07:41.423Z,103087.81
2019-04-20T03:09:45.141Z,103092.41
2019-04-20T03:13:59.044Z,103090.75
2019-04-20T03:16:00.115Z,103092.74
2019-04-20T03:18:08.799Z,103089.71
2019-04-20T03:20:06.895Z,103088.06
2019-04-20T03:22:13.704Z,103100.27
2019-04-20T03:24:26.748Z,103093.61
2019-04-20T03:26:27.738Z,103092.83
2019-04-20T03:29:00.214Z,103091.78
2019-04-20T03:31:41.672Z,103091.73
2019-04-20T03:35:34.088Z,103092.16
2019-04-20T03:37:27.034Z,103091.94
2019-04-20T03:39:25.917Z,103091.67
2019-04-20T03:41:19.527Z,103095.53
2019-04-20T03:43:15.873Z,103093.36
2019-04-20T03:45:21.111Z,103091.22
2019-04-20T03:47:31.587Z,103099.27
2019-04-20T03:49:52.190Z,103100.09
2019-04-20T03:51:53.423Z,103094.52
2019-04-20T03:54:10.701Z,103099.27
2019-04-20T03:56:33.484Z,103095.74
2019-04-20T03:58:46.025Z,103103.00
2019-04-20T04:00:55.513Z,103090.05
2019-04-20T04:03:12.657Z,103090.93
2019-04-20T04:05:21.665Z,103091.42
2019-04-20T04:07:16.687Z,103092.55
2019-04-20T04:09:23.640Z,103091.45
2019-04-20T04:11:31.511Z,103092.88
2019-04-20T04:13:18.739Z,103095.05
2019-04-20T04:15:21.171Z,103097.03
2019-04-20T04:17:30.734Z,103094.49
2019-04-20T04:19:33.258Z,103097.52
2019-04-20T04:21:52.528Z,103100.89
2019-04-20T04:23:55.846Z,103105.09
2019-04-20T04:26:00.850Z,103102.69
2019-04-20T04:28:03.862Z,103104.36
2019-04-20T04:30:08.016Z,103107.54
2019-04-20T04:32:21.108Z,103105.99
2019-04-20T04:34:18.361Z,103114.61
2019-04-20T04:36:16.566Z,103122.16
2019-04-20T04:38:32.749Z,103114.10
2019-04-20T04:40:42.745Z,103125.70
2019-04-20T04:42:34.258Z,103118.55
2019-04-20T04:44:30.257Z,103122.46
2019-04-20T04:46:22.778Z,103123.05
2019-04-20T04:48:31.046Z,103124.72
2019-04-20T04:50:31.463Z,103121.13
2019-04-20T04:52:47.908Z,103123.54
2019-04-20T04:54:47.459Z,103122.42
2019-04-20T04:56:41.960Z,103120.95
2019-04-20T04:58:44.695Z,103119.75
2019-04-20T05:00:46.845Z,103115.60
2019-04-20T05:02:53.811Z,103119.67
2019-04-20T05:05:43.759Z,103120.94
2019-04-20T05:07:42.687Z,103115.38
2019-04-20T05:09:31.838Z,103123.69
2019-04-20T05:11:35.574Z,103127.81
2019-04-20T05:13:47.963Z,103127.81
2019-04-20T05:15:58.353Z,103131.13
2019-04-20T05:18:07.217Z,103129.19
2019-04-20T05:20:12.348Z,103136.94
2019-04-20T05:22:21.836Z,103137.27
2019-04-20T05:24:43.568Z,103134.49
2019-04-20T05:26:55.622Z,103139.47
2019-04-20T05:28:59.128Z,103137.00
2019-04-20T05:30:59.980Z,103138.67
2019-04-20T05:33:07.824Z,103141.88
2019-04-20T05:35:26.761Z,103144.69
2019-04-20T05:37:34.582Z,103139.09
2019-04-20T05:39:32.653Z,103137.67
2019-04-20T05:41:32.426Z,103139.69
2019-04-20T05:43:41.219Z,103140.75
2019-04-20T05:45:45.403Z,103142.47
2019-04-20T05:47:55.453Z,103144.63
2019-04-20T05:49:53.855Z,103141.81
2019-04-20T05:52:10.260Z,103154.38
2019-04-20T05:54:11.957Z,103147.52
2019-04-20T05:56:10.623Z,103135.95
2019-04-20T05:58:19.279Z,103137.84
2019-04-20T06:00:20.229Z,103136.11
2019-04-20T06:02:25.232Z,103141.87
2019-04-20T06:04:42.684Z,103145.52
2019-04-20T06:06:33.147Z,103151.95
2019-04-20T06:11:04.170Z,103146.72
2019-04-20T06:13:06.571Z,103146.83
2019-04-20T06:15:22.385Z,103146.86
2019-04-20T06:17:55.401Z,103153.31
2019-04-20T06:20:00.495Z,103146.38
2019-04-20T06:22:31.414Z,103157.02
2019-04-20T06:24:39.791Z,103157.84
2019-04-20T06:26:49.007Z,103161.14
2019-04-20T06:28:41.536Z,103164.80
2019-04-20T06:30:45.554Z,103171.55
2019-04-20T06:33:50.232Z,103158.91
2019-04-20T06:35:54.500Z,103163.05
2019-04-20T06:37:36.223Z,103170.95
2019-04-20T06:44:02.552Z,103162.20
2019-04-20T06:46:04.377Z,103170.65
2019-04-20T06:48:12.253Z,103164.95
2019-04-20T06:50:08.647Z,103169.48
2019-04-20T06:52:25.669Z,103165.34
2019-04-20T06:54:42.189Z,103172.95
2019-04-20T06:56:51.070Z,103165.58
2019-04-20T06:59:02.245Z,103167.72
2019-04-20T07:00:58.888Z,103173.05
2019-04-20T07:02:58.902Z,103166.23
2019-04-20T07:05:10.032Z,103170.13
2019-04-20T07:07:14.349Z,103170.42
2019-04-20T07:09:14.158Z,103166.73
2019-04-20T07:11:18.737Z,103168.70
2019-04-20T07:13:11.538Z,103165.63
2019-04-20T07:15:26.979Z,103170.66
2019-04-20T07:20:00.229Z,103177.72
2019-04-20T07:24:26.281Z,103167.51
2019-04-20T07:26:29.155Z,103164.63
2019-04-20T07:28:40.824Z,103171.69
2019-04-20T07:30:35.237Z,103162.52
2019-04-20T07:32:48.464Z,103164.98
2019-04-20T07:34:47.496Z,103167.64
2019-04-20T07:37:04.215Z,103159.53
2019-04-20T07:38:53.877Z,103164.66
2019-04-20T07:40:58.851Z,103166.27
2019-04-20T07:43:14.665Z,103166.92
2019-04-20T07:45:07.200Z,103166.89
2019-04-20T07:47:13.840Z,103168.53
2019-04-20T07:49:21.846Z,103175.53
2019-04-20T07:51:09.163Z,103172.02
2019-04-20T07:53:20.397Z,103170.45
2019-04-20T07:55:39.211Z,103170.45
2019-04-20T07:57:31.260Z,103169.95
2019-04-20T07:59:27.623Z,103166.11
2019-04-20T08:02:00.826Z,103166.84
2019-04-20T08:04:08.042Z,103164.91
2019-04-20T08:06:18.375Z,103172.16
2019-04-20T08:08:30.792Z,103170.39
2019-04-20T08:10:33.653Z,103169.87
2019-04-20T08:12:55.532Z,103169.23
2019-04-20T08:15:05.067Z,103171.87
2019-04-20T08:18:59.748Z,103167.48
2019-04-20T08:21:08.205Z,103160.92
2019-04-20T08:23:14.996Z,103165.62
2019-04-20T08:25:08.918Z,103170.59
2019-04-20T08:27:06.490Z,103165.45
2019-04-20T08:29:45.167Z,103165.03
2019-04-20T08:32:21.438Z,103162.05
2019-04-20T08:34:33.666Z,103169.77
2019-04-20T08:36:34.598Z,103172.41
2019-04-20T08:39:00.186Z,103169.38
2019-04-20T08:40:40.002Z,103164.69
2019-04-20T08:42:49.757Z,103164.12
2019-04-20T08:47:06.163Z,103168.21
2019-04-20T08:48:58.167Z,103165.16
2019-04-20T08:51:06.118Z,103164.27
2019-04-20T08:53:15.977Z,103164.12
2019-04-20T08:55:04.709Z,103172.75
2019-04-20T08:56:58.065Z,103169.87
2019-04-20T08:58:57.652Z,103167.20
2019-04-20T09:01:03.946Z,103160.46
2019-04-20T09:03:15.322Z,103160.93
2019-04-20T09:05:24.929Z,103158.34
2019-04-20T09:07:19.644Z,103155.53
2019-04-20T09:09:44.303Z,103155.05
2019-04-20T09:11:45.227Z,103155.30
2019-04-20T09:13:34.256Z,103155.31
2019-04-20T09:15:29.949Z,103155.88
2019-04-20T09:17:49.496Z,103151.44
2019-04-20T09:19:55.855Z,103151.36
2019-04-20T09:22:24.280Z,103155.31
2019-04-20T09:24:34.637Z,103152.03
2019-04-20T09:26:37.699Z,103155.50
2019-04-20T09:28:58.985Z,103149.42
2019-04-20T09:31:12.037Z,103151.75
2019-04-20T09:33:34.829Z,103150.26
2019-04-20T09:35:37.305Z,103148.00
2019-04-20T09:37:53.967Z,103143.97
2019-04-20T09:40:05.534Z,103149.30
2019-04-20T09:42:01.469Z,103140.70
2019-04-20T09:44:00.451Z,103144.18
2019-04-20T09:46:06.826Z,103144.57
2019-04-20T09:48:13.906Z,103140.34
2019-04-20T09:50:27.806Z,103144.96
2019-04-20T09:52:29.043Z,103140.81
2019-04-20T09:54:37.057Z,103136.85
2019-04-20T09:56:37.180Z,103133.33
2019-04-20T09:58:45.200Z,103132.58
2019-04-20T10:00:59.466Z,103140.88
2019-04-20T10:02:48.448Z,103132.89
2019-04-20T10:04:51.465Z,103134.34
2019-04-20T10:06:53.644Z,103131.23
2019-04-20T10:08:58.276Z,103130.57
2019-04-20T10:10:59.868Z,103120.16
2019-04-20T10:13:02.498Z,103121.09
2019-04-20T10:15:12.194Z,103124.07
2019-04-20T10:17:11.864Z,103116.81
2019-04-20T10:19:13.939Z,103121.55
2019-04-20T10:21:16.129Z,103116.66
2019-04-20T10:23:18.605Z,103122.14
2019-04-20T10:25:20.647Z,103114.50
2019-04-20T10:27:22.647Z,103115.25
2019-04-20T10:29:25.836Z,103117.69
2019-04-20T10:31:28.599Z,103112.59
2019-04-20T10:33:31.340Z,103114.14
2019-04-20T10:35:34.072Z,103113.69
2019-04-20T10:37:43.705Z,103113.36
2019-04-20T10:39:46.810Z,103108.95
2019-04-20T10:41:55.360Z,103121.46
2019-04-20T10:43:53.397Z,103110.48
2019-04-20T10:45:55.499Z,103107.22
2019-04-20T10:47:59.039Z,103109.22
2019-04-20T10:50:01.187Z,103109.13
2019-04-20T10:52:03.214Z,103106.67
2019-04-20T10:54:06.697Z,103110.08
2019-04-20T10:56:09.597Z,103108.41
2019-04-20T10:58:13.521Z,103108.45
2019-04-20T11:00:17.427Z,103108.43
2019-04-20T11:02:19.816Z,103113.33
2019-04-20T11:04:22.952Z,103103.20
2019-04-20T11:06:25.296Z,103112.52
2019-04-20T11:08:28.661Z,103118.13
2019-04-20T11:10:46.842Z,103119.84
2019-04-20T11:12:35.035Z,103110.36
2019-04-20T11:14:40.933Z,103113.33
2019-04-20T11:16:42.416Z,103110.51
2019-04-20T11:18:45.296Z,103105.73
2019-04-20T11:20:49.116Z,103107.77
2019-04-20T11:22:52.638Z,103109.02
2019-04-20T11:24:56.422Z,103101.13
2019-04-20T11:26:58.769Z,103090.05
2019-04-20T11:29:02.061Z,103101.94
2019-04-20T11:31:05.917Z,103096.30
2019-04-20T11:33:08.161Z,103096.98
2019-04-20T11:35:21.303Z,103092.17
2019-04-20T11:37:15.271Z,103093.20
2019-04-20T11:39:20.914Z,103099.03
2019-04-20T11:41:26.127Z,103093.12
2019-04-20T11:43:27.174Z,103090.39
2019-04-20T11:45:30.924Z,103085.28
2019-04-20T11:47:33.685Z,103087.36
2019-04-20T11:49:37.532Z,103087.87
2019-04-20T11:51:39.788Z,103088.04
2019-04-20T11:53:42.684Z,103081.08
2019-04-20T11:55:46.530Z,103083.66
2019-04-20T11:57:49.401Z,103072.34
2019-04-20T11:59:52.911Z,103075.95
2019-04-20T12:02:25.314Z,103078.70
2019-04-20T12:04:40.405Z,103070.98
2019-04-20T12:06:34.814Z,103075.08
2019-04-20T12:08:39.375Z,103067.22
2019-04-20T12:10:43.838Z,103070.87
2019-04-20T12:12:50.241Z,103065.53
2019-04-20T12:14:50.479Z,103063.63
2019-04-20T12:16:53.401Z,103053.88
2019-04-20T12:18:56.774Z,103056.70
2019-04-20T12:21:00.826Z,103054.92
2019-04-20T12:23:04.326Z,103051.14
2019-04-20T12:25:06.409Z,103048.02
2019-04-20T12:27:09.037Z,103046.83
2019-04-20T12:29:12.070Z,103050.20
2019-04-20T12:31:20.306Z,103048.13
2019-04-20T12:33:18.193Z,103049.30
2019-04-20T12:35:20.280Z,103049.86
2019-04-20T12:37:22.952Z,103042.95
2019-04-20T12:39:25.207Z,103039.82
2019-04-20T12:41:37.879Z,103043.81
2019-04-20T12:43:32.031Z,103042.86
2019-04-20T12:45:35.571Z,103048.90
2019-04-20T12:47:37.997Z,103040.14
2019-04-20T12:49:41.136Z,103044.50
2019-04-20T12:51:50.730Z,103038.28
2019-04-20T12:53:48.748Z,103033.08
2019-04-20T12:55:51.081Z,103034.58
2019-04-20T12:57:54.496Z,103025.02
2019-04-20T12:59:57.265Z,103023.95
2019-04-20T13:01:59.760Z,103030.67
2019-04-20T13:04:04.303Z,103025.09
2019-04-20T13:06:05.996Z,103013.80
2019-04-20T13:08:09.323Z,103011.54
2019-04-20T13:10:13.672Z,103010.71
2019-04-20T13:12:26.473Z,103011.33
2019-04-20T13:15:02.464Z,103009.35
2019-04-20T13:17:05.001Z,103011.72
2019-04-20T13:19:08.967Z,103022.05
2019-04-20T13:21:11.284Z,103013.53
2019-04-20T13:23:14.998Z,103012.16
2019-04-20T13:25:17.057Z,103012.87
2019-04-20T13:27:19.188Z,103007.66
2019-04-20T13:29:22.704Z,103004.17
2019-04-20T13:31:26.067Z,103004.68
2019-04-20T13:33:29.424Z,103004.78
2019-04-20T13:35:32.234Z,103006.12
2019-04-20T13:37:37.203Z,102988.80
2019-04-20T13:39:38.738Z,102997.31
2019-04-20T13:41:42.205Z,102996.05
2019-04-20T13:43:44.279Z,102992.25
2019-04-20T13:45:46.867Z,102982.87
2019-04-20T13:47:49.224Z,102985.80
2019-04-20T13:49:52.523Z,102982.25
2019-04-20T13:51:54.954Z,102980.66
2019-04-20T13:53:57.475Z,102982.77
2019-04-20T13:56:00.035Z,102973.37
2019-04-20T13:58:25.663Z,102974.28
2019-04-20T14:01:08.507Z,102975.63
2019-04-20T14:03:11.170Z,102971.97
2019-04-20T14:05:15.370Z,102977.63
2019-04-20T14:07:19.129Z,102968.48
2019-04-20T14:09:25.515Z,102967.39
2019-04-20T14:11:29.363Z,102969.88
2019-04-20T14:13:39.229Z,102957.78
2019-04-20T14:15:35.746Z,102955.86
2019-04-20T14:17:39.259Z,102959.56
2019-04-20T14:19:43.151Z,102957.11
2019-04-20T14:21:46.162Z,102958.18
2019-04-20T14:23:48.645Z,102955.89
2019-04-20T14:25:51.163Z,102954.40
2019-04-20T14:27:53.467Z,102952.04
2019-04-20T14:29:55.531Z,102955.73
2019-04-20T14:32:00.578Z,102949.28
2019-04-20T14:34:02.714Z,102951.36
2019-04-20T14:36:05.250Z,102945.22
2019-04-20T14:38:08.024Z,102948.75
2019-04-20T14:40:10.432Z,102952.70
2019-04-20T14:42:23.253Z,102945.04
2019-04-20T14:44:16.760Z,102943.50
2019-04-20T14:46:18.885Z,102945.48
2019-04-20T14:48:21.040Z,102943.03
2019-04-20T14:50:23.520Z,102934.39
2019-04-20T14:52:26.055Z,102930.41
2019-04-20T14:54:27.728Z,102927.81
2019-04-20T14:56:31.409Z,102932.02
2019-04-20T14:58:41.395Z,102924.67
2019-04-20T15:00:51.818Z,102928.53
2019-04-20T15:02:54.145Z,102923.38
2019-04-20T15:04:56.982Z,102918.70
2019-04-20T15:07:00.190Z,102914.98
2019-04-20T15:09:04.760Z,102915.66
2019-04-20T15:11:07.325Z,102917.33
2019-04-20T15:13:11.275Z,102913.08
2019-04-20T15:15:14.668Z,102916.84
2019-04-20T15:17:31.015Z,102907.97
2019-04-20T15:19:41.384Z,102908.45
2019-04-20T15:21:45.455Z,102900.03
2019-04-20T15:23:47.946Z,102897.69
2019-04-20T15:25:50.600Z,102899.23
2019-04-20T15:27:54.378Z,102897.45
2019-04-20T15:29:56.468Z,102900.97
2019-04-20T15:31:59.784Z,102896.53
2019-04-20T15:34:04.295Z,102897.78
2019-04-20T15:36:06.586Z,102893.20
2019-04-20T15:38:09.109Z,102893.60
2019-04-20T15:40:13.045Z,102893.97
2019-04-20T15:42:15.439Z,102892.10
2019-04-20T15:44:17.570Z,102882.77
2019-04-20T15:46:21.259Z,102886.16
2019-04-20T15:48:23.861Z,102881.83
2019-04-20T15:50:27.586Z,102879.47
2019-04-20T15:52:36.875Z,102878.78
2019-04-20T15:54:34.074Z,102882.98
2019-04-20T15:56:37.597Z,102878.42
2019-04-20T15:58:40.746Z,102883.67
2019-04-20T16:00:42.848Z,102881.88
2019-04-20T16:02:55.066Z,102877.80
2019-04-20T16:05:10.378Z,102877.02
2019-04-20T16:07:13.160Z,102868.39
2019-04-20T16:09:15.690Z,102869.99
2019-04-20T16:11:19.338Z,102873.95
2019-04-20T16:13:27.896Z,102873.48
2019-04-20T16:15:25.501Z,102864.08
2019-04-20T16:17:33.763Z,102870.30
2019-04-20T16:19:40.778Z,102862.68
2019-04-20T16:21:37.392Z,102859.09
2019-04-20T16:23:59.325Z,102864.02
2019-04-20T16:26:15.562Z,102864.48
2019-04-20T16:28:19.436Z,102859.81
2019-04-20T16:30:23.289Z,102857.01
2019-04-20T16:32:26.685Z,102861.81
2019-04-20T16:34:29.654Z,102847.94
2019-04-20T16:36:32.424Z,102853.07
2019-04-20T16:38:35.137Z,102849.81
2019-04-20T16:40:37.824Z,102847.14
2019-04-20T16:42:42.219Z,102848.66
2019-04-20T16:44:45.239Z,102848.78
2019-04-20T16:46:48.096Z,102841.20
2019-04-20T16:48:50.701Z,102842.73
2019-04-20T16:50:53.154Z,102848.91
2019-04-20T16:52:55.399Z,102847.84
2019-04-20T16:54:57.816Z,102845.97
2019-04-20T16:57:00.528Z,102848.91
2019-04-20T16:59:07.078Z,102844.46
2019-04-20T17:01:07.768Z,102843.02
2019-04-20T17:03:09.386Z,102842.32
2019-04-20T17:05:11.732Z,102841.14
2019-04-20T17:07:39.693Z,102838.92
2019-04-20T17:09:42.421Z,102835.55
2019-04-20T17:11:45.696Z,102837.41
2019-04-20T17:13:53.048Z,102837.07
2019-04-20T17:15:52.300Z,102837.40
2019-04-20T17:17:55.722Z,102836.11
2019-04-20T17:19:59.672Z,102837.48
2019-04-20T17:22:03.551Z,102829.46
2019-04-20T17:24:07.052Z,102830.16
2019-04-20T17:26:11.920Z,102827.73
2019-04-20T17:28:43.191Z,102826.22
2019-04-20T17:31:03.138Z,102824.72
2019-04-20T17:33:08.254Z,102825.09
2019-04-20T17:35:23.242Z,102827.38
2019-04-20T17:37:14.886Z,102824.80
2019-04-20T17:39:27.757Z,102824.45
2019-04-20T17:41:42.941Z,102821.05
2019-04-20T17:43:33.179Z,102827.34
2019-04-20T17:45:41.487Z,102822.91
2019-04-20T17:47:50.194Z,102817.54
2019-04-20T17:49:57.649Z,102815.67
2019-04-20T17:52:07.705Z,102811.71
2019-04-20T17:54:06.981Z,102812.77
2019-04-20T17:56:09.197Z,102810.28
2019-04-20T17:58:18.865Z,102804.12
2019-04-20T18:00:22.483Z,102809.33
2019-04-20T18:02:57.236Z,102813.05
2019-04-20T18:05:15.965Z,102809.09
2019-04-20T18:07:04.338Z,102815.62
2019-04-20T18:09:07.072Z,102811.77
2019-04-20T18:11:07.989Z,102805.44
2019-04-20T18:13:12.096Z,102819.58
2019-04-20T18:15:27.810Z,102819.89
2019-04-20T18:17:54.712Z,102819.02
2019-04-20T18:19:47.205Z,102820.15
2019-04-20T18:21:53.923Z,102830.37
2019-04-20T18:23:56.387Z,102829.98
2019-04-20T18:26:17.092Z,102828.38
2019-04-20T18:28:15.119Z,102819.59
2019-04-20T18:30:24.032Z,102823.27
2019-04-20T18:32:27.436Z,102824.66
2019-04-20T18:34:57.260Z,102819.44
2019-04-20T18:36:56.494Z,102826.29
2019-04-20T18:39:04.277Z,102828.14
2019-04-20T18:41:07.786Z,102829.93
2019-04-20T18:43:13.335Z,102827.08
2019-04-20T18:45:28.344Z,102826.56
2019-04-20T18:47:33.519Z,102824.20
2019-04-20T18:49:35.038Z,102820.61
2019-04-20T18:51:23.838Z,102818.38
2019-04-20T18:53:32.495Z,102826.16
2019-04-20T18:55:41.645Z,102825.16
2019-04-20T18:57:34.962Z,102823.07
2019-04-20T18:59:43.800Z,102828.80
2019-04-20T19:01:43.799Z,102823.63
2019-04-20T19:03:47.731Z,102825.02
2019-04-20T19:05:51.668Z,102828.29
2019-04-20T19:07:59.900Z,102824.89
2019-04-20T19:10:05.497Z,102828.17
2019-04-20T19:12:05.826Z,102830.11
2019-04-20T19:14:33.564Z,102835.12
2019-04-20T19:16:50.755Z,102828.89
2019-04-20T19:19:00.525Z,102831.23
2019-04-20T19:20:59.107Z,102835.27
2019-04-20T19:23:02.122Z,102833.49
2019-04-20T19:25:05.723Z,102829.78
2019-04-20T19:27:12.255Z,102829.91
2019-04-20T19:29:22.164Z,102833.77
2019-04-20T19:31:35.478Z,102839.01
2019-04-20T19:33:33.160Z,102841.91
2019-04-20T19:35:39.995Z,102837.09
2019-04-20T19:37:34.878Z,102837.34
2019-04-20T19:39:50.352Z,102838.09
2019-04-20T19:41:47.749Z,102840.16
2019-04-20T19:43:53.262Z,102842.04
2019-04-20T19:46:16.676Z,102841.08
2019-04-20T19:48:07.677Z,102838.48
2019-04-20T19:50:25.172Z,102844.66
2019-04-20T19:52:36.776Z,102835.87
2019-04-20T19:54:24.120Z,102838.90
2019-04-20T19:56:26.125Z,102839.09
2019-04-20T19:58:26.452Z,102841.41
2019-04-20T20:00:22.746Z,102835.07
2019-04-20T20:02:25.908Z,102834.36
2019-04-20T20:04:32.175Z,102837.14
2019-04-20T20:06:41.309Z,102841.43
2019-04-20T20:08:39.979Z,102835.87
2019-04-20T20:10:44.167Z,102838.61
2019-04-20T20:12:49.490Z,102844.19
2019-04-20T20:14:51.257Z,102839.20
2019-04-20T20:17:08.647Z,102845.36
2019-04-20T20:19:07.713Z,102842.91
2019-04-20T20:21:15.226Z,102842.18
2019-04-20T20:23:05.718Z,102839.94
2019-04-20T20:25:09.298Z,102837.19
2019-04-20T20:27:20.721Z,102828.34
2019-04-20T20:29:26.209Z,102836.19
2019-04-20T20:31:29.753Z,102842.41
2019-04-20T20:33:39.499Z,102846.34
2019-04-20T20:35:31.367Z,102846.28
2019-04-20T20:37:42.494Z,102845.86
2019-04-20T20:39:39.011Z,102848.74
2019-04-20T20:44:25.730Z,102851.11
2019-04-20T20:46:24.021Z,102848.50
2019-04-20T20:48:34.045Z,102856.47
2019-04-20T20:50:47.172Z,102847.53
2019-04-20T20:52:36.901Z,102856.05
2019-04-20T20:54:41.267Z,102848.09
2019-04-20T20:56:36.722Z,102858.52
2019-04-20T20:58:48.533Z,102849.97
2019-04-20T21:00:50.406Z,102850.97
2019-04-20T21:02:53.768Z,102849.99
2019-04-20T21:04:48.979Z,102851.11
2019-04-20T21:06:51.060Z,102844.56
2019-04-20T21:08:56.022Z,102844.56
2019-04-20T21:10:57.596Z,102859.23
2019-04-20T21:13:06.535Z,102847.02
2019-04-20T21:15:13.239Z,102852.67
2019-04-20T21:17:17.562Z,102853.58
2019-04-20T21:19:27.270Z,102856.02
2019-04-20T21:21:36.047Z,102854.38
2019-04-20T21:23:36.835Z,102849.31
2019-04-20T21:25:37.062Z,102853.30
2019-04-20T21:27:35.143Z,102846.50
2019-04-20T21:29:44.427Z,102849.17
2019-04-20T21:31:43.429Z,102846.14
2019-04-20T21:33:46.902Z,102845.49
2019-04-20T21:35:52.112Z,102848.22
2019-04-20T21:38:00.437Z,102851.82
2019-04-20T21:40:03.104Z,102853.05
2019-04-20T21:42:09.460Z,102846.25
2019-04-20T21:44:14.475Z,102851.05
2019-04-20T21:46:11.945Z,102847.03
2019-04-20T21:48:35.023Z,102847.36
2019-04-20T21:50:34.899Z,102838.89
2019-04-20T21:52:30.441Z,102848.06
2019-04-20T21:54:27.804Z,102843.55
2019-04-20T21:56:30.124Z,102847.36
2019-04-20T21:58:39.508Z,102844.57
2019-04-20T22:00:50.186Z,102838.27
2019-04-20T22:02:57.011Z,102831.18
2019-04-20T22:04:55.596Z,102838.55
2019-04-20T22:06:58.311Z,102841.97
2019-04-20T22:09:02.849Z,102844.75
2019-04-20T22:11:05.946Z,102843.73
2019-04-20T22:13:09.843Z,102836.68
2019-04-20T22:15:19.854Z,102844.20
2019-04-20T22:17:23.570Z,102841.25
2019-04-20T22:19:30.603Z,102842.39
2019-04-20T22:21:42.776Z,102843.33
2019-04-20T22:23:47.503Z,102839.16
2019-04-20T22:25:54.526Z,102839.48
2019-04-20T22:27:38.862Z,102838.84
2019-04-20T22:29:42.361Z,102838.49
2019-04-20T22:31:51.810Z,102838.25
2019-04-20T22:33:56.362Z,102835.83
2019-04-20T22:36:02.469Z,102838.61
2019-04-20T22:38:15.832Z,102835.69
2019-04-20T22:40:21.927Z,102828.60
2019-04-20T22:42:22.269Z,102823.94
2019-04-20T22:44:28.345Z,102827.42
2019-04-20T22:46:33.612Z,102829.63
2019-04-20T22:48:39.309Z,102825.53
2019-04-20T22:50:50.920Z,102826.71
2019-04-20T22:52:53.495Z,102822.93
2019-04-20T22:55:01.375Z,102829.98
2019-04-20T22:57:02.281Z,102829.37
2019-04-20T22:59:02.121Z,102823.34
2019-04-20T23:01:04.302Z,102819.81
2019-04-20T23:03:02.947Z,102818.74
2019-04-20T23:05:06.731Z,102815.06
2019-04-20T23:07:10.598Z,102817.34
2019-04-20T23:09:14.871Z,102816.39
2019-04-20T23:11:24.627Z,102806.23
2019-04-20T23:13:27.887Z,102822.52
2019-04-20T23:15:25.938Z,102813.91
2019-04-20T23:17:35.928Z,102818.45
2019-04-20T23:19:41.598Z,102812.77
2019-04-20T23:21:40.111Z,102814.41
2019-04-20T23:23:41.608Z,102816.41
2019-04-20T23:25:45.132Z,102811.64
2019-04-20T23:27:51.231Z,102815.39
2019-04-20T23:29:51.617Z,102814.89
2019-04-20T23:31:59.667Z,102811.55
2019-04-20T23:34:01.480Z,102808.08
2019-04-20T23:36:04.378Z,102806.02
2019-04-20T23:38:11.114Z,102804.63
2019-04-20T23:40:13.021Z,102798.32
2019-04-20T23:42:18.056Z,102793.84
2019-04-20T23:44:31.555Z,102793.46
2019-04-20T23:46:59.335Z,102795.16
2019-04-20T23:49:22.122Z,102795.23
2019-04-20T23:51:41.847Z,102787.75
2019-04-20T23:53:39.509Z,102789.06
2019-04-20T23:55:27.896Z,102784.93
2019-04-20T23:57:31.510Z,102782.44
2019-04-20T23:59:41.111Z,102786.63
